Cincinnati, OH

7:00 AM EST on February 11, 2016 (GMT -0500)
Mt Adams | | Change Station
CLOSE
Current Station
Personal Weather Station
Location: Cincinnati, OH
Elevation: 797 ft
Nearby Weather Stations
Active Advisory: Special Statement

Elev 797 ft 39.11 °N, 84.50 °W | Updated 1 minute ago

Overcast
Overcast
15.3 °F
Feels Like 15 °F
N
0.0
Wind Variable Wind from SW
Gusts 3.7 mph

Today
High -- | Low -- °F
--% Chance of Precip.
Yesterday
High -- | Low -- °F
Precip. -- in
Pressure 30.27 in
Visibility 10.0 miles
Clouds Overcast 12000 ft
Windchill 15 °F
Dew Point 9 °F
Humidity 77%
Rainfall 0.00 in
Snow Depth Not available.
7:34 AM 6:10 PM
Waxing Crescent, 11% visible
METAR KLUK 111153Z 31005KT 10SM OVC120 M09/M14 A3025 RMK AO2 SLP251 T10891139 11083 21094 53022
Pressure 30.27 in
Visibility 10.0 miles
Clouds Overcast 12000 ft
Windchill 15 °F
Dew Point 9 °F
Humidity 77%
Rainfall 0.00 in
Snow Depth Not available.
7:34 AM 6:10 PM
Waxing Crescent, 11% visible
METAR KLUK 111153Z 31005KT 10SM OVC120 M09/M14 A3025 RMK AO2 SLP251 T10891139 11083 21094 53022

10-Day Weather Forecast

Almanac

Astronomy

Feb. 11, 2016 Rise Set
Actual Time
Civil Twilight
Nautical Twilight
Astronomical Twilight
Moon
Length of Visible Light
Length of Day
Tomorrow will be .
, % of the Moon is Illuminated

Today's Extremes

State Highs State Lows

Community

WunderPhotos

Upload Photos

1,892,030 photos uploaded!

WunderBlog® & News

Nearby

Air Quality

  Air Quality AQ Index Pollutant
Not available.

Snow Depth

Station Depth Elevation

Earthquake Activity

City Distance Mag. Time & Date
Minimum magnitude displayed is 2.5.

Coastal Water Temperatures

Place Temperature

Stations

Nearby Weather Stations

Station Location Temp. Windchill Dew Point Humidity Wind Precip. Elev Updated Type
                   

Watches & Warnings

Special Statement
Issued: 3:55 AM EST Feb. 11, 2016 – National Weather Service

... Cold wind chill readings this morning...

Temperatures this morning have dipped into the single digits at
many locations. This combined with west winds of 5 to 10 mph will
result in wind chill readings in the zero to 10 below range
through mid morning.

Be prepared for the cold temperatures this morning and bundle up
if headed outdoors.